Time;durP1;ratioP1;P1;durP2;ratioP2;P2;SDS_P1;SDS_P2;PMS_P1;PMS_P2;Temp;Humidity;BMP_temperature;BMP_pressure;BME280_temperature;BME280_humidity;BME280_pressure;Samples;Min_cycle;Max_cycle;Signal;HPM_P1;HPM_P2
2022/11/08 08:21:06;;;;;;;20.48;4.82;;;;;;;11.00;100.00;96736.59;5815854;22;1388333;-83
2022/11/08 08:23:32;;;;;;;24.15;4.97;;;;;;;11.03;100.00;96734.50;6301921;22;20014;-84
2022/11/08 08:26:01;;;;;;;15.73;4.38;;;;;;;11.14;100.00;96725.63;6305930;22;20043;-84
2022/11/08 08:28:26;;;;;;;18.40;4.68;;;;;;;11.12;100.00;96743.47;6305505;22;20007;-83
2022/11/08 08:30:51;;;;;;;20.13;4.18;;;;;;;11.28;100.00;96739.88;6306014;22;20017;-83
2022/11/08 08:33:18;;;;;;;15.77;4.20;;;;;;;11.24;100.00;96717.00;6305368;22;20011;-81
2022/11/08 08:35:43;;;;;;;16.85;4.07;;;;;;;11.51;100.00;96722.09;6252261;22;20011;-84
2022/11/08 08:38:10;;;;;;;25.27;4.35;;;;;;;11.63;100.00;96729.00;6306002;22;20007;-86
2022/11/08 08:40:36;;;;;;;18.50;3.83;;;;;;;11.60;100.00;96734.75;6306991;22;20098;-88
2022/11/08 08:43:04;;;;;;;17.77;3.45;;;;;;;11.68;100.00;96734.25;6307507;22;20042;-86
2022/11/08 08:45:31;;;;;;;23.83;3.75;;;;;;;11.57;100.00;96739.47;6307747;22;20333;-88
2022/11/08 08:47:57;;;;;;;13.10;3.75;;;;;;;11.66;100.00;96738.97;6308111;22;20094;-87
2022/11/08 08:50:24;;;;;;;24.38;3.97;;;;;;;11.43;100.00;96748.88;6307641;22;20035;-86
2022/11/08 08:52:50;;;;;;;19.00;4.82;;;;;;;11.49;100.00;96749.69;6280254;22;20433;-85
2022/11/08 08:55:16;;;;;;;21.08;3.75;;;;;;;11.65;100.00;96740.03;6279196;22;20068;-83
2022/11/08 08:57:46;;;;;;;17.80;3.50;;;;;;;11.55;100.00;96727.66;6307722;22;20459;-89
2022/11/08 09:00:14;;;;;;;17.98;4.43;;;;;;;11.58;100.00;96735.78;6279908;22;20064;-87
2022/11/08 09:02:40;;;;;;;16.00;4.10;;;;;;;11.55;100.00;96732.91;6254472;22;20111;-86
2022/11/08 09:05:06;;;;;;;32.40;4.50;;;;;;;11.54;100.00;96734.72;6280672;22;20007;-87
2022/11/08 09:07:33;;;;;;;16.00;3.85;;;;;;;11.66;100.00;96739.75;6307637;22;20011;-87
2022/11/08 09:09:59;;;;;;;19.00;3.92;;;;;;;11.71;100.00;96725.84;6281076;22;20459;-87
2022/11/08 09:12:27;;;;;;;24.05;4.78;;;;;;;11.80;100.00;96729.56;6280051;22;20015;-87
2022/11/08 09:14:52;;;;;;;19.40;3.45;;;;;;;11.86;100.00;96722.47;6307391;22;20017;-87
2022/11/08 09:17:18;;;;;;;18.38;4.13;;;;;;;11.80;100.00;96734.81;6307866;22;20459;-85
2022/11/08 09:19:45;;;;;;;19.20;3.55;;;;;;;11.97;100.00;96731.16;6280629;22;20007;-88
2022/11/08 09:22:11;;;;;;;21.02;3.85;;;;;;;11.98;100.00;96725.66;6314683;22;20026;-85
2022/11/08 09:24:37;;;;;;;18.52;3.30;;;;;;;12.06;100.00;96732.25;6307629;22;20011;-88
2022/11/08 09:27:02;;;;;;;14.98;3.90;;;;;;;11.88;100.00;96730.09;6307449;22;20089;-89
2022/11/08 09:29:32;;;;;;;23.65;4.03;;;;;;;11.95;100.00;96730.63;6307894;22;20432;-87
2022/11/08 09:32:00;;;;;;;11.65;3.40;;;;;;;11.92;100.00;96726.69;6307446;22;20006;-87
2022/11/08 09:34:25;;;;;;;15.98;4.45;;;;;;;12.12;100.00;96731.22;6254907;22;20015;-86
2022/11/08 09:36:54;;;;;;;19.63;3.95;;;;;;;12.02;100.00;96731.22;6281460;22;20014;-86
2022/11/08 09:39:20;;;;;;;16.10;3.92;;;;;;;12.06;100.00;96732.25;6307360;22;20447;-87
2022/11/08 09:42:10;;;;;;;19.58;3.97;;;;;;;12.24;100.00;96735.44;6280410;22;20031;-86
2022/11/08 09:44:41;;;;;;;17.13;4.93;;;;;;;12.02;100.00;96728.59;6279679;22;20437;-87
2022/11/08 09:47:18;;;;;;;24.70;5.60;;;;;;;12.19;100.00;96730.97;6280629;22;20015;-89
2022/11/08 09:49:49;;;;;;;28.17;4.65;;;;;;;12.26;100.00;96735.97;6307848;22;20019;-88
2022/11/08 09:52:23;;;;;;;20.20;3.90;;;;;;;12.21;100.00;96734.13;6280425;22;20021;-90
2022/11/08 09:54:54;;;;;;;20.63;5.03;;;;;;;12.31;100.00;96738.59;6307291;22;20015;-87
2022/11/08 09:57:29;;;;;;;16.77;3.72;;;;;;;12.24;100.00;96724.91;6280171;22;20452;-89
2022/11/08 10:00:02;;;;;;;28.88;4.53;;;;;;;12.34;100.00;96714.38;6306971;22;20007;-86
2022/11/08 10:02:30;;;;;;;15.18;4.60;;;;;;;12.45;100.00;96722.28;6307326;22;20030;-85
2022/11/08 10:05:01;;;;;;;25.30;5.28;;;;;;;12.71;100.00;96721.22;6279302;22;20015;-85
2022/11/08 10:07:53;;;;;;;20.00;4.47;;;;;;;12.76;100.00;96725.69;6278795;22;20011;-86
2022/11/08 10:10:47;;;;;;;25.58;4.80;;;;;;;12.88;100.00;96720.13;6272740;22;20011;-86
2022/11/08 10:13:48;;;;;;;18.73;4.75;;;;;;;12.90;100.00;96718.03;6278251;22;20098;-83
2022/11/08 10:16:47;;;;;;;25.73;4.28;;;;;;;12.98;100.00;96714.84;6150968;23;20017;-86
2022/11/08 10:19:22;;;;;;;20.35;4.25;;;;;;;12.91;100.00;96713.56;6304921;22;20114;-83
2022/11/08 10:22:01;;;;;;;24.08;3.90;;;;;;;13.34;100.00;96705.25;6304802;22;20090;-82
2022/11/08 10:24:45;;;;;;;23.73;4.50;;;;;;;13.45;100.00;96706.81;6304884;22;20018;-82
2022/11/08 10:27:18;;;;;;;24.27;4.78;;;;;;;13.68;100.00;96704.59;6278283;22;20086;-83
2022/11/08 10:29:45;;;;;;;25.27;4.18;;;;;;;13.60;100.00;96689.34;6277064;22;20010;-82
2022/11/08 10:32:18;;;;;;;21.60;4.10;;;;;;;13.39;100.00;96682.28;6278076;22;20015;-82
2022/11/08 10:34:58;;;;;;;16.67;4.55;;;;;;;13.30;100.00;96683.94;6304509;22;20011;-82
2022/11/08 10:37:26;;;;;;;18.67;5.25;;;;;;;13.16;100.00;96680.28;6305391;22;20011;-82
2022/11/08 10:40:02;;;;;;;14.23;3.97;;;;;;;13.04;100.00;96670.84;6305016;22;20061;-82
2022/11/08 10:42:48;;;;;;;18.65;3.75;;;;;;;13.17;100.00;96674.78;6304852;22;20014;-82
2022/11/08 10:45:13;;;;;;;22.55;4.72;;;;;;;13.52;100.00;96670.41;6277923;22;20007;-83
2022/11/08 10:47:40;;;;;;;22.70;5.30;;;;;;;13.50;100.00;96669.88;6307484;22;20018;-82
2022/11/08 10:50:11;;;;;;;23.58;3.85;;;;;;;13.53;100.00;96665.94;6306124;22;20007;-83
2022/11/08 10:52:43;;;;;;;14.38;3.85;;;;;;;13.46;100.00;96668.06;6279853;22;20456;-82
2022/11/08 10:55:23;;;;;;;21.55;3.83;;;;;;;13.54;100.00;96673.53;6306171;22;20076;-83
2022/11/08 10:57:48;;;;;;;17.20;3.45;;;;;;;13.66;100.00;96670.59;6305518;22;20007;-85
2022/11/08 11:00:20;;;;;;;22.00;3.67;;;;;;;13.73;100.00;96674.78;6278477;22;20122;-87
2022/11/08 11:03:05;;;;;;;32.80;5.90;;;;;;;13.82;100.00;96668.66;6306549;22;20429;-86
2022/11/08 11:05:30;;;;;;;21.05;4.50;;;;;;;13.67;100.00;96672.19;6307037;22;20006;-86
2022/11/08 11:08:06;;;;;;;20.67;5.32;;;;;;;14.10;100.00;96668.97;6306083;22;20090;-86
2022/11/08 11:10:33;;;;;;;23.80;4.95;;;;;;;14.24;100.00;96657.78;6253185;22;20073;-87
2022/11/08 11:13:03;;;;;;;21.17;4.45;;;;;;;13.83;100.00;96654.41;6306022;22;20090;-86
2022/11/08 11:15:45;;;;;;;20.20;4.40;;;;;;;13.98;100.00;96658.00;6278213;22;20015;-83
2022/11/08 11:18:31;;;;;;;29.08;5.35;;;;;;;13.94;100.00;96649.03;6279246;22;20432;-86
2022/11/08 11:21:11;;;;;;;19.55;5.10;;;;;;;14.02;100.00;96653.75;6306348;22;20429;-86
2022/11/08 11:23:36;;;;;;;19.25;4.35;;;;;;;14.33;100.00;96656.13;6304366;22;20019;-87
2022/11/08 11:26:03;;;;;;;32.72;11.80;;;;;;;14.28;100.00;96632.41;6279399;22;20011;-86
2022/11/08 11:28:29;;;;;;;18.98;4.00;;;;;;;13.77;100.00;96639.69;6305439;22;20086;-86
2022/11/08 11:31:00;;;;;;;25.33;5.22;;;;;;;13.85;100.00;96631.19;6279091;22;20370;-85
2022/11/08 11:33:28;;;;;;;17.80;4.18;;;;;;;13.99;100.00;96635.84;6279066;22;20153;-86
2022/11/08 11:35:59;;;;;;;22.58;3.15;;;;;;;14.37;100.00;96629.97;6305699;22;20341;-87
2022/11/08 11:39:10;;;;;;;17.13;4.22;;;;;;;14.42;100.00;96617.50;6278688;22;20345;-85
2022/11/08 11:41:46;;;;;;;16.30;3.47;;;;;;;14.25;100.00;96617.94;6253356;22;20034;-84
2022/11/08 11:44:28;;;;;;;15.15;3.00;;;;;;;14.17;100.00;96621.19;6306107;22;20011;-84
2022/11/08 11:47:00;;;;;;;20.25;4.05;;;;;;;14.21;100.00;96611.63;6306530;22;20003;-84
2022/11/08 11:49:28;;;;;;;19.73;4.70;;;;;;;14.14;100.00;96601.41;6277004;22;20007;-83
2022/11/08 11:51:54;;;;;;;18.63;3.13;;;;;;;14.04;100.00;96600.69;6278701;22;20011;-86
2022/11/08 11:54:26;;;;;;;18.58;3.47;;;;;;;14.19;100.00;96602.44;6279008;22;20048;-86
2022/11/08 11:57:00;;;;;;;28.85;4.03;;;;;;;14.10;100.00;96604.88;6278665;22;20818;-85
2022/11/08 12:00:03;;;;;;;20.30;4.15;;;;;;;14.63;100.00;96601.47;6278458;22;20011;-86
2022/11/08 12:02:49;;;;;;;;;;;;;;;14.54;100.00;96593.38;6278113;22;20107;-82
2022/11/08 12:05:42;;;;;;;22.17;3.53;;;;;;;14.16;100.00;96595.09;6253368;22;19913;-84
2022/11/08 12:08:38;;;;;;;21.27;4.03;;;;;;;14.11;100.00;96585.34;6278067;22;20066;-85
2022/11/08 12:11:20;;;;;;;25.80;4.07;;;;;;;13.88;100.00;96576.31;6252321;22;20100;-84
2022/11/08 12:13:58;;;;;;;19.58;3.58;;;;;;;13.82;100.00;96584.28;6305639;22;20065;-85
2022/11/08 12:16:42;;;;;;;19.60;4.50;;;;;;;14.18;100.00;96579.75;6278416;22;20317;-84
2022/11/08 12:19:39;;;;;;;12.40;3.08;;;;;;;14.17;100.00;96578.19;6252614;22;20566;-85
2022/11/08 12:22:39;;;;;;;16.17;4.07;;;;;;;13.81;100.00;96574.78;6271055;22;20023;-85
2022/11/08 12:25:30;;;;;;;17.35;3.53;;;;;;;13.95;100.00;96582.84;6275188;22;20062;-85
2022/11/08 12:28:10;;;;;;;13.02;3.13;;;;;;;13.54;100.00;96641.91;6273247;22;20458;-85
2022/11/08 12:30:42;;;;;;;14.90;2.13;;;;;;;12.73;100.00;96659.63;6274371;22;20012;-86
2022/11/08 12:33:16;;;;;;;5.53;2.28;;;;;;;11.40;100.00;96644.34;6274847;22;20430;-84
2022/11/08 12:35:42;;;;;;;6.40;2.17;;;;;;;10.78;100.00;96636.19;6273089;22;20014;-86
2022/11/08 12:38:25;;;;;;;4.65;1.45;;;;;;;10.68;100.00;96616.75;6273646;22;20008;-84
2022/11/08 12:40:54;;;;;;;;;;;;;;;10.54;100.00;96608.56;6274159;22;20046;-86
2022/11/08 12:43:45;;;;;;;2.28;0.93;;;;;;;10.27;100.00;96606.00;6274389;22;20347;-85
2022/11/08 12:46:18;;;;;;;2.17;1.05;;;;;;;10.18;100.00;96618.00;6273871;22;20016;-86
2022/11/08 12:49:15;;;;;;;2.50;1.08;;;;;;;10.25;100.00;96602.84;6272871;22;20014;-85
2022/11/08 12:51:41;;;;;;;2.63;1.00;;;;;;;10.94;100.00;96611.63;6241341;22;20047;-85
2022/11/08 12:54:50;;;;;;;3.55;1.33;;;;;;;11.16;100.00;96589.63;6273608;22;20007;-86
2022/11/08 12:57:20;;;;;;;4.93;1.23;;;;;;;11.10;100.00;96591.47;6126580;23;20025;-85
2022/11/08 12:59:49;;;;;;;2.08;1.20;;;;;;;11.09;100.00;96604.84;6260337;22;20016;-86
2022/11/08 13:02:22;;;;;;;3.25;1.10;;;;;;;10.82;100.00;96624.19;6272821;22;20012;-85
2022/11/08 13:05:10;;;;;;;5.53;1.40;;;;;;;10.84;100.00;96614.22;6274676;22;20003;-86
2022/11/08 13:08:02;;;;;;;3.83;1.25;;;;;;;11.12;100.00;96614.81;6272711;22;20007;-85
2022/11/08 13:10:37;;;;;;;3.28;1.17;;;;;;;10.94;100.00;96609.00;6274101;22;20087;-85
2022/11/08 13:13:25;;;;;;;6.43;2.17;;;;;;;10.89;100.00;96601.09;6273653;22;20104;-86
2022/11/08 13:16:08;;;;;;;7.85;1.63;;;;;;;10.68;100.00;96580.03;6273475;22;20015;-87
2022/11/08 13:18:42;;;;;;;9.98;1.48;;;;;;;10.43;100.00;96586.72;6275076;22;20066;-85
2022/11/08 13:21:26;;;;;;;4.00;1.58;;;;;;;10.77;100.00;96576.91;6278381;22;20015;-86
2022/11/08 13:24:13;;;;;;;5.55;1.70;;;;;;;10.77;100.00;96582.16;6306193;22;20015;-86
2022/11/08 13:26:43;;;;;;;7.07;2.03;;;;;;;10.92;100.00;96600.59;6259309;22;20011;-86
2022/11/08 13:29:14;;;;;;;10.05;2.45;;;;;;;11.08;100.00;96604.03;6254979;22;20287;-86
2022/11/08 13:31:58;;;;;;;10.35;3.80;;;;;;;11.15;100.00;96588.06;6307417;22;20089;-86
2022/11/08 13:35:00;;;;;;;7.68;2.38;;;;;;;11.71;100.00;96589.19;6279670;22;20393;-86
2022/11/08 13:37:47;;;;;;;5.82;2.25;;;;;;;11.17;100.00;96596.47;6307379;22;20003;-86
2022/11/08 13:40:30;;;;;;;8.13;2.42;;;;;;;11.36;100.00;96598.59;6306601;22;20011;-85
2022/11/08 13:43:14;;;;;;;10.88;2.97;;;;;;;11.46;100.00;96609.16;6279217;22;20018;-84
2022/11/08 13:45:42;;;;;;;5.43;2.05;;;;;;;11.47;100.00;96607.28;6254846;22;20400;-84
2022/11/08 13:48:23;;;;;;;8.75;2.25;;;;;;;11.37;100.00;96600.19;6306338;22;20007;-86
2022/11/08 13:50:55;;;;;;;5.47;2.13;;;;;;;11.40;100.00;96597.84;6279326;22;20007;-85
2022/11/08 13:53:20;;;;;;;6.60;1.80;;;;;;;11.25;100.00;96597.78;6306598;22;20026;-85
2022/11/08 13:55:52;;;;;;;7.30;2.30;;;;;;;11.57;100.00;96602.06;6306292;22;20015;-85
2022/11/08 13:58:45;;;;;;;7.63;2.10;;;;;;;11.61;100.00;96599.72;6279692;22;20011;-84
2022/11/08 14:01:19;;;;;;;6.75;2.03;;;;;;;12.01;100.00;96600.81;6306601;22;20019;-85
2022/11/08 14:03:45;;;;;;;11.52;2.42;;;;;;;12.03;100.00;96606.59;6279734;22;20433;-86
2022/11/08 14:07:01;;;;;;;12.02;3.40;;;;;;;12.08;100.00;96600.50;6306690;22;20022;-85
2022/11/08 14:09:34;;;;;;;9.23;2.30;;;;;;;12.09;100.00;96595.00;6238217;22;20012;-86
2022/11/08 14:12:34;;;;;;;12.40;2.95;;;;;;;11.99;100.00;96595.00;6307348;22;20015;-84
2022/11/08 14:15:18;;;;;;;12.15;2.42;;;;;;;12.10;100.00;96588.69;6307389;22;20428;-86
2022/11/08 14:17:49;;;;;;;9.35;2.55;;;;;;;11.99;100.00;96592.38;6284586;22;20062;-86
2022/11/08 14:20:27;;;;;;;5.38;1.80;;;;;;;11.78;100.00;96592.34;6254079;22;20348;-85
2022/11/08 14:22:53;;;;;;;9.70;2.08;;;;;;;11.46;100.00;96588.13;6281064;22;20049;-84
2022/11/08 14:25:25;;;;;;;8.38;1.63;;;;;;;11.31;100.00;96595.97;6308680;22;20037;-85
2022/11/08 14:27:51;;;;;;;8.10;1.58;;;;;;;11.35;100.00;96595.22;6309328;22;20066;-86
2022/11/08 14:30:18;;;;;;;4.10;1.20;;;;;;;11.34;100.00;96587.56;6308198;22;20007;-84
2022/11/08 14:32:45;;;;;;;9.55;1.40;;;;;;;11.28;100.00;96592.81;6253920;22;20350;-85
2022/11/08 14:35:24;;;;;;;6.63;2.35;;;;;;;11.40;100.00;96595.22;6309286;22;20035;-85
2022/11/08 14:37:52;;;;;;;9.30;1.42;;;;;;;11.55;100.00;96594.44;6282054;22;20045;-86
2022/11/08 14:40:23;;;;;;;6.38;1.60;;;;;;;11.38;100.00;96601.75;6306351;22;20010;-84
2022/11/08 14:42:50;;;;;;;7.80;1.67;;;;;;;11.42;100.00;96608.09;6254613;22;20047;-84
2022/11/08 14:45:17;;;;;;;5.05;1.48;;;;;;;11.30;100.00;96595.19;6307113;22;20038;-84
2022/11/08 14:47:43;;;;;;;6.72;1.13;;;;;;;11.24;100.00;96591.78;6307017;22;20011;-84
2022/11/08 14:50:18;;;;;;;5.68;1.50;;;;;;;11.17;100.00;96587.81;6278839;22;20456;-85
2022/11/08 14:52:45;;;;;;;5.35;1.38;;;;;;;11.31;100.00;96582.84;6253122;22;20437;-86
2022/11/08 14:55:13;;;;;;;6.40;1.35;;;;;;;11.13;100.00;96590.16;6306854;22;20063;-85
2022/11/08 14:57:41;;;;;;;10.35;1.70;;;;;;;10.85;100.00;96589.53;6279577;22;20022;-84
2022/11/08 15:00:18;;;;;;;3.92;1.50;;;;;;;11.02;100.00;96593.81;6282890;22;20445;-84
2022/11/08 15:02:47;;;;;;;7.95;1.90;;;;;;;10.97;100.00;96597.97;6308063;22;20150;-84
2022/11/08 15:05:26;;;;;;;7.80;1.70;;;;;;;10.86;100.00;96602.41;6307946;22;20011;-83
2022/11/08 15:07:52;;;;;;;7.75;1.83;;;;;;;10.92;100.00;96607.69;6307325;22;20015;-84
2022/11/08 15:10:18;;;;;;;3.83;1.40;;;;;;;10.80;100.00;96607.88;6254766;22;20015;-83
2022/11/08 15:12:43;;;;;;;4.68;1.65;;;;;;;10.84;100.00;96608.97;6280409;22;20311;-85
2022/11/08 15:15:27;;;;;;;3.90;1.25;;;;;;;10.71;100.00;96612.84;6307246;22;20011;-84
2022/11/08 15:18:10;;;;;;;4.25;1.83;;;;;;;10.84;100.00;96601.09;6308120;22;20433;-85
2022/11/08 15:20:37;;;;;;;5.78;3.03;;;;;;;10.90;100.00;96613.19;6280285;22;20076;-84
2022/11/08 15:23:22;;;;;;;6.03;1.60;;;;;;;10.86;100.00;96601.63;6307433;22;20007;-84
2022/11/08 15:25:58;;;;;;;4.53;1.52;;;;;;;10.92;100.00;96607.69;6255086;22;20018;-84
2022/11/08 15:28:28;;;;;;;7.53;1.40;;;;;;;10.96;100.00;96601.66;6306900;22;20035;-86
2022/11/08 15:30:59;;;;;;;11.10;2.20;;;;;;;11.04;100.00;96595.13;6280705;22;20011;-86
2022/11/08 15:33:36;;;;;;;6.53;1.95;;;;;;;11.03;100.00;96595.38;6280492;22;20086;-85
2022/11/08 15:36:11;;;;;;;3.58;1.80;;;;;;;11.07;100.00;96578.06;6279240;22;20011;-87
2022/11/08 15:38:42;;;;;;;9.77;2.30;;;;;;;11.14;100.00;96583.84;6306711;22;20026;-87
2022/11/08 15:41:28;;;;;;;10.23;3.53;;;;;;;11.07;100.00;96591.97;6307194;22;20007;-86
2022/11/08 15:44:22;;;;;;;10.13;2.08;;;;;;;11.11;100.00;96594.88;6279670;22;20391;-86
2022/11/08 15:46:49;;;;;;;8.95;2.00;;;;;;;11.20;100.00;96584.66;6279923;22;20023;-84
2022/11/08 15:49:23;;;;;;;7.32;1.90;;;;;;;10.95;100.00;96581.69;6306524;22;20007;-84
2022/11/08 15:51:51;;;;;;;5.45;1.52;;;;;;;11.04;100.00;96582.00;6279485;22;20098;-85
2022/11/08 15:54:17;;;;;;;4.50;1.60;;;;;;;10.68;100.00;96572.16;6278730;22;20007;-85
2022/11/08 15:56:44;;;;;;;6.28;1.55;;;;;;;10.91;100.00;96592.97;6307077;22;20097;-83
2022/11/08 15:59:14;;;;;;;4.63;1.80;;;;;;;10.98;100.00;96583.03;6279124;22;20026;-83
2022/11/08 16:01:45;;;;;;;5.10;1.60;;;;;;;10.75;100.00;96579.78;6279257;22;20038;-83
2022/11/08 16:04:12;;;;;;;5.65;1.35;;;;;;;10.76;100.00;96570.06;6305484;22;20011;-84
2022/11/08 16:06:37;;;;;;;5.57;1.48;;;;;;;10.68;100.00;96574.78;6279159;22;20043;-84
2022/11/08 16:09:03;;;;;;;7.07;2.13;;;;;;;10.62;100.00;96567.94;6278543;22;20007;-85
2022/11/08 16:11:30;;;;;;;6.95;2.17;;;;;;;10.77;100.00;96566.41;6306403;22;20007;-83
2022/11/08 16:13:56;;;;;;;6.63;1.83;;;;;;;10.79;100.00;96559.88;6306589;22;20486;-84
2022/11/08 16:16:22;;;;;;;5.72;2.20;;;;;;;10.80;100.00;96547.53;6305385;22;20027;-84
2022/11/08 16:18:48;;;;;;;10.38;2.58;;;;;;;10.87;100.00;96569.09;6276884;22;20352;-84
2022/11/08 16:21:14;;;;;;;8.50;1.95;;;;;;;10.86;100.00;96555.16;6277252;22;20090;-85
2022/11/08 16:23:40;;;;;;;3.80;2.00;;;;;;;10.80;100.00;96555.41;6278980;22;20021;-87
2022/11/08 16:26:12;;;;;;;8.20;3.15;;;;;;;10.71;100.00;96558.53;6279103;22;20393;-83
2022/11/08 16:28:38;;;;;;;13.13;3.08;;;;;;;10.42;100.00;96543.19;6252510;22;20003;-83
2022/11/08 16:31:06;;;;;;;7.68;2.63;;;;;;;10.50;100.00;96551.63;6306132;22;20094;-84
2022/11/08 16:33:33;;;;;;;7.93;2.63;;;;;;;10.36;100.00;96554.66;6305136;22;20049;-86
2022/11/08 16:36:11;;;;;;;8.88;3.00;;;;;;;10.47;100.00;96557.38;6305323;22;20098;-84
2022/11/08 16:38:37;;;;;;;14.73;3.03;;;;;;;10.33;100.00;96555.16;6278540;22;20011;-84
2022/11/08 16:41:04;;;;;;;9.75;2.65;;;;;;;10.45;100.00;96564.72;6305831;22;20015;-84
2022/11/08 16:43:29;;;;;;;14.88;3.65;;;;;;;10.38;100.00;96560.44;6278116;22;20341;-83
2022/11/08 16:45:56;;;;;;;11.20;3.30;;;;;;;10.56;100.00;96561.88;6306328;22;20018;-85
2022/11/08 16:48:24;;;;;;;11.52;2.65;;;;;;;10.48;100.00;96558.94;6304996;22;20011;-85
2022/11/08 16:50:50;;;;;;;17.85;3.65;;;;;;;10.49;100.00;96565.78;6278209;22;20007;-83
2022/11/08 16:53:18;;;;;;;17.58;3.50;;;;;;;10.78;100.00;96579.28;6306479;22;20086;-89
2022/11/08 16:55:43;;;;;;;14.68;3.20;;;;;;;10.75;100.00;96565.88;6255883;22;20017;-88
2022/11/08 16:58:09;;;;;;;12.05;2.72;;;;;;;10.82;100.00;96580.34;6280986;22;20504;-89
2022/11/08 17:00:37;;;;;;;14.13;3.05;;;;;;;10.68;100.00;96569.53;6254128;22;20011;-88
2022/11/08 17:03:03;;;;;;;9.93;3.85;;;;;;;10.91;100.00;96575.38;6279682;22;20007;-88
2022/11/08 17:05:28;;;;;;;10.23;2.78;;;;;;;10.92;100.00;96579.59;6307461;22;20007;-88
2022/11/08 17:07:54;;;;;;;13.40;3.65;;;;;;;10.98;100.00;96583.81;6280216;22;20050;-87
2022/11/08 17:10:23;;;;;;;15.35;2.88;;;;;;;11.03;100.00;96598.00;6280289;22;20353;-88
2022/11/08 17:12:49;;;;;;;11.25;2.85;;;;;;;10.89;100.00;96611.59;6307635;22;20030;-87
2022/11/08 17:15:21;;;;;;;13.23;2.83;;;;;;;11.02;100.00;96593.81;6282912;22;20086;-87
2022/11/08 17:17:47;;;;;;;10.68;2.92;;;;;;;10.98;100.00;96607.41;6256145;22;20064;-87
2022/11/08 17:20:15;;;;;;;8.55;2.67;;;;;;;10.77;100.00;96598.69;6279751;22;20019;-85
2022/11/08 17:22:42;;;;;;;11.05;2.50;;;;;;;10.65;100.00;96604.16;6278181;22;20015;-85
2022/11/08 17:25:13;;;;;;;9.48;2.30;;;;;;;10.53;100.00;96601.75;6305682;22;20018;-85
2022/11/08 17:27:39;;;;;;;7.88;2.10;;;;;;;10.45;100.00;96601.41;6278900;22;20026;-88
2022/11/08 17:30:06;;;;;;;7.72;2.40;;;;;;;10.47;100.00;96601.97;6305816;22;20003;-88
2022/11/08 17:32:34;;;;;;;9.82;2.20;;;;;;;10.43;100.00;96601.66;6279563;22;20459;-85
2022/11/08 17:35:00;;;;;;;10.40;2.90;;;;;;;10.41;100.00;96606.38;6303902;22;20019;-85
2022/11/08 17:37:25;;;;;;;8.45;2.45;;;;;;;10.38;100.00;96599.75;6305828;22;20056;-83
2022/11/08 17:39:51;;;;;;;6.80;2.42;;;;;;;10.43;100.00;96593.81;6277732;22;20003;-84
2022/11/08 17:42:21;;;;;;;11.80;2.53;;;;;;;10.41;100.00;96604.53;6304856;22;20019;-83
2022/11/08 17:44:48;;;;;;;10.40;3.00;;;;;;;10.25;100.00;96595.75;6305055;22;20011;-85
2022/11/08 17:47:14;;;;;;;14.82;3.13;;;;;;;10.11;100.00;96605.09;6278505;22;20080;-84
2022/11/08 17:49:40;;;;;;;7.60;2.63;;;;;;;10.36;100.00;96609.72;6304255;22;20011;-85
2022/11/08 17:52:07;;;;;;;6.20;2.50;;;;;;;10.28;100.00;96610.19;6304952;22;20018;-85
2022/11/08 17:54:32;;;;;;;11.32;2.60;;;;;;;10.29;100.00;96615.19;6277778;22;20011;-86
2022/11/08 17:56:58;;;;;;;13.02;2.80;;;;;;;10.18;100.00;96607.50;6307372;22;20011;-84
2022/11/08 17:59:23;;;;;;;16.20;2.97;;;;;;;10.51;100.00;96627.41;6307585;22;20094;-86
2022/11/08 18:01:49;;;;;;;11.05;2.50;;;;;;;10.38;100.00;96626.00;6306482;22;20462;-85
2022/11/08 18:04:14;;;;;;;12.25;2.60;;;;;;;10.38;100.00;96633.06;6306920;22;20463;-85
2022/11/08 18:06:40;;;;;;;7.55;2.60;;;;;;;10.54;100.00;96626.13;6307063;22;20330;-87
2022/11/08 18:09:07;;;;;;;12.00;2.95;;;;;;;10.49;100.00;96629.50;6278918;22;20065;-83
2022/11/08 18:11:34;;;;;;;23.25;3.70;;;;;;;10.48;100.00;96627.91;6306236;22;20003;-84
2022/11/08 18:14:00;;;;;;;8.50;3.38;;;;;;;10.54;100.00;96636.59;6279336;22;20049;-84
2022/11/08 18:16:26;;;;;;;8.15;2.63;;;;;;;10.64;100.00;96631.44;6306599;22;20034;-86
2022/11/08 18:18:52;;;;;;;11.38;2.83;;;;;;;10.62;100.00;96633.53;6307561;22;20336;-85
2022/11/08 18:21:18;;;;;;;14.95;3.25;;;;;;;10.48;100.00;96648.13;6306772;22;20011;-84
2022/11/08 18:23:46;;;;;;;10.25;2.92;;;;;;;10.46;100.00;96663.31;6307124;22;20011;-86
2022/11/08 18:26:13;;;;;;;11.80;3.00;;;;;;;10.47;100.00;96672.78;6280159;22;20045;-85
2022/11/08 18:28:40;;;;;;;12.32;2.83;;;;;;;10.56;100.00;96679.13;6254881;22;20053;-83
2022/11/08 18:31:17;;;;;;;10.90;3.10;;;;;;;10.64;100.00;96673.41;6308361;22;20007;-88
2022/11/08 18:33:42;;;;;;;7.53;2.85;;;;;;;10.54;100.00;96683.81;6311044;22;20127;-86
2022/11/08 18:36:19;;;;;;;13.75;3.53;;;;;;;10.51;100.00;96697.44;6309618;22;21432;-86
2022/11/08 18:38:45;;;;;;;12.80;3.30;;;;;;;10.66;100.00;96697.56;6308932;22;20015;-86
2022/11/08 18:41:14;;;;;;;10.05;2.97;;;;;;;10.56;100.00;96694.84;6310504;22;20007;-87
2022/11/08 18:43:40;;;;;;;14.57;3.40;;;;;;;10.50;100.00;96691.41;6255841;22;20503;-87
2022/11/08 18:46:09;;;;;;;13.52;3.58;;;;;;;10.45;100.00;96701.84;6310543;22;20007;-90
2022/11/08 18:48:35;;;;;;;6.07;2.60;;;;;;;10.33;100.00;96712.50;6282882;22;20010;-88
2022/11/08 18:52:06;;;;;;;12.10;2.97;;;;;;;10.54;100.00;96712.69;6282454;22;20037;-87
2022/11/08 18:54:37;;;;;;;11.43;3.40;;;;;;;10.35;100.00;96707.78;6279362;22;20013;-86
2022/11/08 18:57:03;;;;;;;12.48;3.40;;;;;;;10.42;100.00;96708.41;6279638;22;20011;-85
2022/11/08 18:59:28;;;;;;;12.45;3.55;;;;;;;10.56;100.00;96727.13;6255515;22;20019;-86
2022/11/08 19:01:54;;;;;;;7.28;3.63;;;;;;;10.56;100.00;96736.81;6279845;22;20007;-86
2022/11/08 19:04:27;;;;;;;11.23;4.00;;;;;;;10.56;100.00;96736.81;6257000;22;20011;-87
2022/11/08 19:06:53;;;;;;;15.52;3.85;;;;;;;10.51;100.00;96740.19;6280616;22;20014;-85
2022/11/08 19:09:19;;;;;;;13.98;3.88;;;;;;;10.52;100.00;96752.28;6254780;22;20007;-84
2022/11/08 19:11:46;;;;;;;11.95;2.95;;;;;;;10.57;100.00;96746.28;6279634;22;20018;-86
2022/11/08 19:14:11;;;;;;;8.43;3.22;;;;;;;10.38;100.00;96738.75;6279739;22;20014;-86
2022/11/08 19:16:37;;;;;;;15.80;3.85;;;;;;;10.34;100.00;96735.06;6279713;22;20011;-85
2022/11/08 19:19:02;;;;;;;15.20;4.30;;;;;;;10.11;100.00;96736.97;6305129;22;20447;-87
2022/11/08 19:21:35;;;;;;;12.25;3.72;;;;;;;10.36;100.00;96740.84;6274021;22;20024;-87
2022/11/08 19:24:09;;;;;;;9.85;3.75;;;;;;;10.42;100.00;96733.84;6271667;22;20442;-86
2022/11/08 19:26:39;;;;;;;12.73;3.80;;;;;;;10.48;100.00;96743.31;6274401;22;20094;-86
2022/11/08 19:29:06;;;;;;;13.55;3.47;;;;;;;10.39;100.00;96729.84;6275288;22;20079;-87
2022/11/08 19:31:33;;;;;;;14.18;4.10;;;;;;;10.35;100.00;96723.53;6274024;22;20094;-88
2022/11/08 19:33:59;;;;;;;12.10;4.22;;;;;;;10.40;100.00;96739.31;6274256;22;20318;-87
2022/11/08 19:36:27;;;;;;;11.23;3.88;;;;;;;10.27;100.00;96737.09;6248564;22;20141;-87
2022/11/08 19:38:54;;;;;;;10.35;3.47;;;;;;;10.39;100.00;96721.97;6276285;22;20057;-86
2022/11/08 19:41:22;;;;;;;11.50;3.65;;;;;;;10.23;100.00;96736.03;6274943;22;20008;-87
2022/11/08 19:43:53;;;;;;;8.20;3.15;;;;;;;10.29;100.00;96740.25;6275891;22;20061;-88
2022/11/08 19:46:27;;;;;;;15.68;3.78;;;;;;;10.28;100.00;96734.22;6277404;22;20053;-86
2022/11/08 19:48:53;;;;;;;13.07;4.13;;;;;;;10.26;100.00;96735.53;6249963;22;20004;-88
2022/11/08 19:51:24;;;;;;;16.23;4.10;;;;;;;10.09;100.00;96733.78;6274949;22;20342;-86
2022/11/08 19:53:53;;;;;;;12.52;3.65;;;;;;;10.11;100.00;96733.53;6275687;22;20017;-85
2022/11/08 19:56:20;;;;;;;12.20;3.53;;;;;;;10.18;100.00;96734.13;6277096;22;20329;-85
2022/11/08 19:58:46;;;;;;;14.75;3.60;;;;;;;10.15;100.00;96732.78;6275539;22;20015;-84
2022/11/08 20:01:39;;;;;;;8.30;3.60;;;;;;;9.92;100.00;96731.25;6284092;22;20007;-85
2022/11/08 20:04:10;;;;;;;14.27;4.22;;;;;;;10.09;100.00;96725.13;6274985;22;20018;-85
2022/11/08 20:06:36;;;;;;;10.07;3.85;;;;;;;10.07;100.00;96722.78;6278737;22;20008;-87